sensor_id;sensor_type;location;lat;lon;timestamp;P1;durP1;ratioP1;P2;durP2;ratioP2
29030;SDS011;16122;50.236;11.734;2023-07-28T00:02:25;1.00;;;0.90;;
29030;SDS011;16122;50.236;11.734;2023-07-28T00:04:51;1.20;;;0.90;;
29030;SDS011;16122;50.236;11.734;2023-07-28T00:07:17;0.87;;;0.87;;
29030;SDS011;16122;50.236;11.734;2023-07-28T00:09:43;1.00;;;0.83;;
29030;SDS011;16122;50.236;11.734;2023-07-28T00:12:09;1.23;;;1.13;;
29030;SDS011;16122;50.236;11.734;2023-07-28T00:14:35;0.80;;;0.80;;
29030;SDS011;16122;50.236;11.734;2023-07-28T00:17:00;0.93;;;0.93;;
29030;SDS011;16122;50.236;11.734;2023-07-28T00:19:26;1.10;;;1.00;;
29030;SDS011;16122;50.236;11.734;2023-07-28T00:21:52;1.77;;;0.80;;
29030;SDS011;16122;50.236;11.734;2023-07-28T00:24:18;1.23;;;1.00;;
29030;SDS011;16122;50.236;11.734;2023-07-28T00:26:44;1.17;;;1.07;;
29030;SDS011;16122;50.236;11.734;2023-07-28T00:29:10;1.20;;;1.10;;
29030;SDS011;16122;50.236;11.734;2023-07-28T00:31:36;1.10;;;1.00;;
29030;SDS011;16122;50.236;11.734;2023-07-28T00:34:02;0.83;;;0.83;;
29030;SDS011;16122;50.236;11.734;2023-07-28T00:36:29;0.93;;;0.93;;
29030;SDS011;16122;50.236;11.734;2023-07-28T00:38:58;0.80;;;0.73;;
29030;SDS011;16122;50.236;11.734;2023-07-28T00:41:24;1.00;;;0.90;;
29030;SDS011;16122;50.236;11.734;2023-07-28T00:43:50;0.60;;;0.60;;
29030;SDS011;16122;50.236;11.734;2023-07-28T00:46:16;0.97;;;0.97;;
29030;SDS011;16122;50.236;11.734;2023-07-28T00:48:42;1.70;;;0.73;;
29030;SDS011;16122;50.236;11.734;2023-07-28T00:51:08;0.80;;;0.80;;
29030;SDS011;16122;50.236;11.734;2023-07-28T00:53:35;0.80;;;0.80;;
29030;SDS011;16122;50.236;11.734;2023-07-28T00:56:01;0.90;;;0.90;;
29030;SDS011;16122;50.236;11.734;2023-07-28T00:58:27;1.10;;;0.90;;
29030;SDS011;16122;50.236;11.734;2023-07-28T01:00:54;0.80;;;0.80;;
29030;SDS011;16122;50.236;11.734;2023-07-28T01:03:19;0.90;;;0.90;;
29030;SDS011;16122;50.236;11.734;2023-07-28T01:05:55;0.90;;;0.90;;
29030;SDS011;16122;50.236;11.734;2023-07-28T01:08:51;0.90;;;0.90;;
29030;SDS011;16122;50.236;11.734;2023-07-28T01:11:22;1.30;;;0.90;;
29030;SDS011;16122;50.236;11.734;2023-07-28T01:13:48;0.80;;;0.80;;
29030;SDS011;16122;50.236;11.734;2023-07-28T01:16:14;0.90;;;0.90;;
29030;SDS011;16122;50.236;11.734;2023-07-28T01:18:40;0.70;;;0.70;;
29030;SDS011;16122;50.236;11.734;2023-07-28T01:21:08;0.90;;;0.70;;
29030;SDS011;16122;50.236;11.734;2023-07-28T01:23:43;1.00;;;0.70;;
29030;SDS011;16122;50.236;11.734;2023-07-28T01:26:36;0.80;;;0.80;;
29030;SDS011;16122;50.236;11.734;2023-07-28T01:29:03;0.80;;;0.80;;
29030;SDS011;16122;50.236;11.734;2023-07-28T01:31:30;1.00;;;0.80;;
29030;SDS011;16122;50.236;11.734;2023-07-28T01:33:56;0.80;;;0.80;;
29030;SDS011;16122;50.236;11.734;2023-07-28T01:36:22;0.83;;;0.83;;
29030;SDS011;16122;50.236;11.734;2023-07-28T01:38:48;0.80;;;0.73;;
29030;SDS011;16122;50.236;11.734;2023-07-28T01:41:14;0.80;;;0.80;;
29030;SDS011;16122;50.236;11.734;2023-07-28T01:43:40;0.83;;;0.83;;
29030;SDS011;16122;50.236;11.734;2023-07-28T01:46:07;0.83;;;0.83;;
29030;SDS011;16122;50.236;11.734;2023-07-28T01:48:33;0.70;;;0.70;;
29030;SDS011;16122;50.236;11.734;2023-07-28T01:50:59;0.90;;;0.90;;
29030;SDS011;16122;50.236;11.734;2023-07-28T01:53:25;0.70;;;0.70;;
29030;SDS011;16122;50.236;11.734;2023-07-28T01:55:50;0.70;;;0.70;;
29030;SDS011;16122;50.236;11.734;2023-07-28T01:58:16;0.70;;;0.70;;
29030;SDS011;16122;50.236;11.734;2023-07-28T02:00:42;0.80;;;0.80;;
29030;SDS011;16122;50.236;11.734;2023-07-28T02:03:08;1.20;;;0.87;;
29030;SDS011;16122;50.236;11.734;2023-07-28T02:05:34;0.90;;;0.80;;
29030;SDS011;16122;50.236;11.734;2023-07-28T02:07:59;0.70;;;0.70;;
29030;SDS011;16122;50.236;11.734;2023-07-28T02:10:26;0.80;;;0.80;;
29030;SDS011;16122;50.236;11.734;2023-07-28T02:12:53;0.80;;;0.70;;
29030;SDS011;16122;50.236;11.734;2023-07-28T02:15:19;0.70;;;0.70;;
29030;SDS011;16122;50.236;11.734;2023-07-28T02:17:44;0.60;;;0.60;;
29030;SDS011;16122;50.236;11.734;2023-07-28T02:20:10;0.87;;;0.77;;
29030;SDS011;16122;50.236;11.734;2023-07-28T02:22:38;0.70;;;0.60;;
29030;SDS011;16122;50.236;11.734;2023-07-28T02:25:05;0.80;;;0.80;;
29030;SDS011;16122;50.236;11.734;2023-07-28T02:27:31;0.80;;;0.80;;
29030;SDS011;16122;50.236;11.734;2023-07-28T02:29:57;0.70;;;0.70;;
29030;SDS011;16122;50.236;11.734;2023-07-28T02:32:23;0.60;;;0.60;;
29030;SDS011;16122;50.236;11.734;2023-07-28T02:34:49;0.70;;;0.70;;
29030;SDS011;16122;50.236;11.734;2023-07-28T02:37:15;0.70;;;0.70;;
29030;SDS011;16122;50.236;11.734;2023-07-28T02:39:41;0.70;;;0.70;;
29030;SDS011;16122;50.236;11.734;2023-07-28T02:42:07;0.80;;;0.70;;
29030;SDS011;16122;50.236;11.734;2023-07-28T02:44:33;1.03;;;0.80;;
29030;SDS011;16122;50.236;11.734;2023-07-28T02:46:59;0.70;;;0.70;;
29030;SDS011;16122;50.236;11.734;2023-07-28T02:49:24;0.80;;;0.80;;
29030;SDS011;16122;50.236;11.734;2023-07-28T02:51:50;1.17;;;0.80;;
29030;SDS011;16122;50.236;11.734;2023-07-28T02:54:16;0.93;;;0.90;;
29030;SDS011;16122;50.236;11.734;2023-07-28T02:56:42;0.90;;;0.90;;
29030;SDS011;16122;50.236;11.734;2023-07-28T02:59:10;1.00;;;0.80;;
29030;SDS011;16122;50.236;11.734;2023-07-28T03:01:36;0.77;;;0.77;;
29030;SDS011;16122;50.236;11.734;2023-07-28T03:04:02;0.70;;;0.70;;
29030;SDS011;16122;50.236;11.734;2023-07-28T03:06:40;0.73;;;0.73;;
29030;SDS011;16122;50.236;11.734;2023-07-28T03:09:06;1.00;;;0.60;;
29030;SDS011;16122;50.236;11.734;2023-07-28T03:11:44;0.80;;;0.80;;
29030;SDS011;16122;50.236;11.734;2023-07-28T03:14:10;0.80;;;0.73;;
29030;SDS011;16122;50.236;11.734;2023-07-28T03:16:38;0.70;;;0.70;;
29030;SDS011;16122;50.236;11.734;2023-07-28T03:19:05;0.80;;;0.70;;
29030;SDS011;16122;50.236;11.734;2023-07-28T03:21:30;0.80;;;0.80;;
29030;SDS011;16122;50.236;11.734;2023-07-28T03:23:56;0.80;;;0.70;;
29030;SDS011;16122;50.236;11.734;2023-07-28T03:26:22;0.60;;;0.60;;
29030;SDS011;16122;50.236;11.734;2023-07-28T03:28:48;0.90;;;0.90;;
29030;SDS011;16122;50.236;11.734;2023-07-28T03:31:14;0.83;;;0.70;;
29030;SDS011;16122;50.236;11.734;2023-07-28T03:33:40;0.63;;;0.63;;
29030;SDS011;16122;50.236;11.734;2023-07-28T03:36:05;0.73;;;0.73;;
29030;SDS011;16122;50.236;11.734;2023-07-28T03:38:33;0.70;;;0.70;;
29030;SDS011;16122;50.236;11.734;2023-07-28T03:40:59;0.60;;;0.60;;
29030;SDS011;16122;50.236;11.734;2023-07-28T03:43:24;0.70;;;0.60;;
29030;SDS011;16122;50.236;11.734;2023-07-28T03:45:50;0.70;;;0.70;;
29030;SDS011;16122;50.236;11.734;2023-07-28T03:48:16;1.03;;;0.70;;
29030;SDS011;16122;50.236;11.734;2023-07-28T03:50:42;0.60;;;0.60;;
29030;SDS011;16122;50.236;11.734;2023-07-28T03:53:08;0.70;;;0.70;;
29030;SDS011;16122;50.236;11.734;2023-07-28T03:55:34;0.93;;;0.93;;
29030;SDS011;16122;50.236;11.734;2023-07-28T03:58:00;0.70;;;0.70;;
29030;SDS011;16122;50.236;11.734;2023-07-28T04:00:26;0.70;;;0.60;;
29030;SDS011;16122;50.236;11.734;2023-07-28T04:02:52;0.90;;;0.80;;
29030;SDS011;16122;50.236;11.734;2023-07-28T04:05:18;1.10;;;0.60;;
29030;SDS011;16122;50.236;11.734;2023-07-28T04:07:44;0.80;;;0.70;;
29030;SDS011;16122;50.236;11.734;2023-07-28T04:10:09;0.70;;;0.70;;
29030;SDS011;16122;50.236;11.734;2023-07-28T04:12:35;5.20;;;0.90;;
29030;SDS011;16122;50.236;11.734;2023-07-28T04:15:01;0.70;;;0.70;;
29030;SDS011;16122;50.236;11.734;2023-07-28T04:17:28;1.00;;;0.90;;
29030;SDS011;16122;50.236;11.734;2023-07-28T04:19:54;1.10;;;0.80;;
29030;SDS011;16122;50.236;11.734;2023-07-28T04:22:20;0.80;;;0.60;;
29030;SDS011;16122;50.236;11.734;2023-07-28T04:24:48;1.00;;;0.77;;
29030;SDS011;16122;50.236;11.734;2023-07-28T04:27:14;0.90;;;0.90;;
29030;SDS011;16122;50.236;11.734;2023-07-28T04:29:41;0.73;;;0.70;;
29030;SDS011;16122;50.236;11.734;2023-07-28T04:32:09;1.77;;;0.70;;
29030;SDS011;16122;50.236;11.734;2023-07-28T04:34:35;1.83;;;0.80;;
29030;SDS011;16122;50.236;11.734;2023-07-28T04:37:12;1.83;;;0.80;;
29030;SDS011;16122;50.236;11.734;2023-07-28T04:39:49;1.47;;;0.80;;
29030;SDS011;16122;50.236;11.734;2023-07-28T04:42:16;1.00;;;0.83;;
29030;SDS011;16122;50.236;11.734;2023-07-28T04:44:45;1.13;;;0.73;;
29030;SDS011;16122;50.236;11.734;2023-07-28T04:47:12;1.00;;;0.80;;
29030;SDS011;16122;50.236;11.734;2023-07-28T04:49:38;3.83;;;0.80;;
29030;SDS011;16122;50.236;11.734;2023-07-28T04:52:07;0.90;;;0.70;;
29030;SDS011;16122;50.236;11.734;2023-07-28T04:54:33;1.10;;;0.80;;
29030;SDS011;16122;50.236;11.734;2023-07-28T04:56:59;0.80;;;0.80;;
29030;SDS011;16122;50.236;11.734;2023-07-28T04:59:31;0.70;;;0.70;;
29030;SDS011;16122;50.236;11.734;2023-07-28T05:01:57;0.87;;;0.73;;
29030;SDS011;16122;50.236;11.734;2023-07-28T05:04:23;0.70;;;0.70;;
29030;SDS011;16122;50.236;11.734;2023-07-28T05:06:49;1.57;;;0.80;;
29030;SDS011;16122;50.236;11.734;2023-07-28T05:09:15;6.20;;;0.60;;
29030;SDS011;16122;50.236;11.734;2023-07-28T05:11:41;4.20;;;1.00;;
29030;SDS011;16122;50.236;11.734;2023-07-28T05:14:07;1.20;;;0.80;;
29030;SDS011;16122;50.236;11.734;2023-07-28T05:16:34;2.30;;;0.80;;
29030;SDS011;16122;50.236;11.734;2023-07-28T05:19:05;2.00;;;1.00;;
29030;SDS011;16122;50.236;11.734;2023-07-28T05:21:50;0.93;;;0.83;;
29030;SDS011;16122;50.236;11.734;2023-07-28T05:24:19;0.97;;;0.87;;
29030;SDS011;16122;50.236;11.734;2023-07-28T05:26:45;2.20;;;0.90;;
29030;SDS011;16122;50.236;11.734;2023-07-28T05:29:12;1.00;;;0.60;;
29030;SDS011;16122;50.236;11.734;2023-07-28T05:31:38;0.70;;;0.70;;
29030;SDS011;16122;50.236;11.734;2023-07-28T05:34:11;0.70;;;0.70;;
29030;SDS011;16122;50.236;11.734;2023-07-28T05:36:38;1.43;;;0.77;;
29030;SDS011;16122;50.236;11.734;2023-07-28T05:39:04;0.90;;;0.60;;
29030;SDS011;16122;50.236;11.734;2023-07-28T05:41:37;0.93;;;0.83;;
29030;SDS011;16122;50.236;11.734;2023-07-28T05:44:04;0.70;;;0.60;;
29030;SDS011;16122;50.236;11.734;2023-07-28T05:46:29;0.80;;;0.80;;
29030;SDS011;16122;50.236;11.734;2023-07-28T05:48:57;2.20;;;0.80;;
29030;SDS011;16122;50.236;11.734;2023-07-28T05:51:23;3.13;;;1.00;;
29030;SDS011;16122;50.236;11.734;2023-07-28T05:53:49;2.23;;;0.90;;
29030;SDS011;16122;50.236;11.734;2023-07-28T05:56:17;1.83;;;0.73;;
29030;SDS011;16122;50.236;11.734;2023-07-28T05:58:47;2.30;;;0.70;;
29030;SDS011;16122;50.236;11.734;2023-07-28T06:01:13;1.37;;;0.70;;
29030;SDS011;16122;50.236;11.734;2023-07-28T06:03:58;0.63;;;0.60;;
29030;SDS011;16122;50.236;11.734;2023-07-28T06:06:26;3.90;;;0.83;;
29030;SDS011;16122;50.236;11.734;2023-07-28T06:08:52;1.20;;;0.80;;
29030;SDS011;16122;50.236;11.734;2023-07-28T06:11:19;0.80;;;0.70;;
29030;SDS011;16122;50.236;11.734;2023-07-28T06:13:46;0.80;;;0.70;;
29030;SDS011;16122;50.236;11.734;2023-07-28T06:16:13;0.77;;;0.77;;
29030;SDS011;16122;50.236;11.734;2023-07-28T06:18:40;0.70;;;0.70;;
29030;SDS011;16122;50.236;11.734;2023-07-28T06:21:11;2.00;;;0.80;;
29030;SDS011;16122;50.236;11.734;2023-07-28T06:23:37;0.70;;;0.70;;
29030;SDS011;16122;50.236;11.734;2023-07-28T06:26:03;0.70;;;0.70;;
29030;SDS011;16122;50.236;11.734;2023-07-28T06:28:29;3.67;;;0.70;;
29030;SDS011;16122;50.236;11.734;2023-07-28T06:30:55;0.70;;;0.60;;
29030;SDS011;16122;50.236;11.734;2023-07-28T06:33:27;0.80;;;0.80;;
29030;SDS011;16122;50.236;11.734;2023-07-28T06:35:54;0.80;;;0.67;;
29030;SDS011;16122;50.236;11.734;2023-07-28T06:38:20;0.60;;;0.60;;
29030;SDS011;16122;50.236;11.734;2023-07-28T06:40:46;0.60;;;0.60;;
29030;SDS011;16122;50.236;11.734;2023-07-28T06:43:12;0.70;;;0.60;;
29030;SDS011;16122;50.236;11.734;2023-07-28T06:45:38;0.60;;;0.60;;
29030;SDS011;16122;50.236;11.734;2023-07-28T06:48:03;1.00;;;0.80;;
29030;SDS011;16122;50.236;11.734;2023-07-28T06:50:30;0.80;;;0.70;;
29030;SDS011;16122;50.236;11.734;2023-07-28T06:52:57;0.70;;;0.60;;
29030;SDS011;16122;50.236;11.734;2023-07-28T06:55:24;1.40;;;0.60;;
29030;SDS011;16122;50.236;11.734;2023-07-28T06:57:50;2.23;;;0.97;;
29030;SDS011;16122;50.236;11.734;2023-07-28T07:00:17;0.80;;;0.80;;
29030;SDS011;16122;50.236;11.734;2023-07-28T07:02:43;1.00;;;0.70;;
29030;SDS011;16122;50.236;11.734;2023-07-28T07:05:10;0.77;;;0.77;;
29030;SDS011;16122;50.236;11.734;2023-07-28T07:07:36;1.17;;;0.70;;
29030;SDS011;16122;50.236;11.734;2023-07-28T07:10:03;0.70;;;0.70;;
29030;SDS011;16122;50.236;11.734;2023-07-28T07:12:30;0.93;;;0.80;;
29030;SDS011;16122;50.236;11.734;2023-07-28T07:14:57;0.60;;;0.57;;
29030;SDS011;16122;50.236;11.734;2023-07-28T07:17:23;1.40;;;0.70;;
29030;SDS011;16122;50.236;11.734;2023-07-28T07:19:48;2.80;;;0.60;;
29030;SDS011;16122;50.236;11.734;2023-07-28T07:22:14;0.90;;;0.80;;
29030;SDS011;16122;50.236;11.734;2023-07-28T07:24:40;1.20;;;0.80;;
29030;SDS011;16122;50.236;11.734;2023-07-28T07:27:07;1.07;;;0.70;;
29030;SDS011;16122;50.236;11.734;2023-07-28T07:29:37;0.70;;;0.70;;
29030;SDS011;16122;50.236;11.734;2023-07-28T07:32:04;6.43;;;0.80;;
29030;SDS011;16122;50.236;11.734;2023-07-28T07:34:31;1.13;;;0.60;;
29030;SDS011;16122;50.236;11.734;2023-07-28T07:36:58;0.80;;;0.70;;
29030;SDS011;16122;50.236;11.734;2023-07-28T07:39:24;0.80;;;0.70;;
29030;SDS011;16122;50.236;11.734;2023-07-28T07:41:50;0.77;;;0.77;;
29030;SDS011;16122;50.236;11.734;2023-07-28T07:44:16;2.53;;;0.90;;
29030;SDS011;16122;50.236;11.734;2023-07-28T07:46:41;2.60;;;0.70;;
29030;SDS011;16122;50.236;11.734;2023-07-28T07:49:07;1.27;;;0.80;;
29030;SDS011;16122;50.236;11.734;2023-07-28T07:51:33;0.80;;;0.80;;
29030;SDS011;16122;50.236;11.734;2023-07-28T07:53:59;0.70;;;0.63;;
29030;SDS011;16122;50.236;11.734;2023-07-28T07:56:28;2.03;;;0.70;;
29030;SDS011;16122;50.236;11.734;2023-07-28T07:58:54;1.23;;;0.67;;
29030;SDS011;16122;50.236;11.734;2023-07-28T08:01:20;0.83;;;0.50;;
29030;SDS011;16122;50.236;11.734;2023-07-28T08:03:47;0.80;;;0.73;;
29030;SDS011;16122;50.236;11.734;2023-07-28T08:06:12;0.83;;;0.80;;
29030;SDS011;16122;50.236;11.734;2023-07-28T08:08:38;0.80;;;0.80;;
29030;SDS011;16122;50.236;11.734;2023-07-28T08:11:04;0.93;;;0.83;;
29030;SDS011;16122;50.236;11.734;2023-07-28T08:13:31;0.93;;;0.90;;
29030;SDS011;16122;50.236;11.734;2023-07-28T08:15:57;1.17;;;0.77;;
29030;SDS011;16122;50.236;11.734;2023-07-28T08:18:23;1.53;;;0.90;;
29030;SDS011;16122;50.236;11.734;2023-07-28T08:20:48;1.43;;;0.80;;
29030;SDS011;16122;50.236;11.734;2023-07-28T08:23:14;0.90;;;0.70;;
29030;SDS011;16122;50.236;11.734;2023-07-28T08:25:40;1.57;;;0.60;;
29030;SDS011;16122;50.236;11.734;2023-07-28T08:28:06;0.70;;;0.70;;
29030;SDS011;16122;50.236;11.734;2023-07-28T08:30:32;0.90;;;0.70;;
29030;SDS011;16122;50.236;11.734;2023-07-28T08:32:58;2.40;;;0.77;;
29030;SDS011;16122;50.236;11.734;2023-07-28T08:35:25;1.20;;;0.60;;
29030;SDS011;16122;50.236;11.734;2023-07-28T08:37:50;1.53;;;0.60;;
29030;SDS011;16122;50.236;11.734;2023-07-28T08:40:16;0.70;;;0.60;;
29030;SDS011;16122;50.236;11.734;2023-07-28T08:42:42;1.50;;;0.73;;
29030;SDS011;16122;50.236;11.734;2023-07-28T08:45:09;0.93;;;0.77;;
29030;SDS011;16122;50.236;11.734;2023-07-28T08:47:36;0.80;;;0.80;;
29030;SDS011;16122;50.236;11.734;2023-07-28T08:50:03;0.80;;;0.67;;
29030;SDS011;16122;50.236;11.734;2023-07-28T08:52:31;0.73;;;0.63;;
29030;SDS011;16122;50.236;11.734;2023-07-28T08:54:57;0.80;;;0.63;;
29030;SDS011;16122;50.236;11.734;2023-07-28T08:57:23;0.80;;;0.70;;
29030;SDS011;16122;50.236;11.734;2023-07-28T08:59:49;1.33;;;0.70;;
29030;SDS011;16122;50.236;11.734;2023-07-28T09:02:16;0.77;;;0.70;;
29030;SDS011;16122;50.236;11.734;2023-07-28T09:04:43;0.80;;;0.80;;
29030;SDS011;16122;50.236;11.734;2023-07-28T09:07:10;0.70;;;0.60;;
29030;SDS011;16122;50.236;11.734;2023-07-28T09:09:36;1.10;;;0.80;;
29030;SDS011;16122;50.236;11.734;2023-07-28T09:12:02;1.67;;;0.87;;
29030;SDS011;16122;50.236;11.734;2023-07-28T09:14:29;1.97;;;1.10;;
29030;SDS011;16122;50.236;11.734;2023-07-28T09:16:55;2.07;;;1.87;;
29030;SDS011;16122;50.236;11.734;2023-07-28T09:19:35;19.97;;;9.00;;
29030;SDS011;16122;50.236;11.734;2023-07-28T09:22:23;96.80;;;64.10;;
29030;SDS011;16122;50.236;11.734;2023-07-28T09:24:49;133.70;;;86.87;;
29030;SDS011;16122;50.236;11.734;2023-07-28T09:27:26;150.97;;;101.13;;
29030;SDS011;16122;50.236;11.734;2023-07-28T09:29:54;132.67;;;89.30;;
29030;SDS011;16122;50.236;11.734;2023-07-28T09:32:31;107.13;;;73.30;;
29030;SDS011;16122;50.236;11.734;2023-07-28T09:35:11;102.77;;;68.00;;
29030;SDS011;16122;50.236;11.734;2023-07-28T09:37:39;98.30;;;63.97;;
29030;SDS011;16122;50.236;11.734;2023-07-28T09:40:14;97.60;;;62.50;;
29030;SDS011;16122;50.236;11.734;2023-07-28T09:42:43;105.60;;;61.57;;
29030;SDS011;16122;50.236;11.734;2023-07-28T09:45:14;92.57;;;59.17;;
29030;SDS011;16122;50.236;11.734;2023-07-28T09:47:47;85.00;;;58.30;;
29030;SDS011;16122;50.236;11.734;2023-07-28T09:50:18;88.60;;;58.93;;
29030;SDS011;16122;50.236;11.734;2023-07-28T09:52:49;78.40;;;55.90;;
29030;SDS011;16122;50.236;11.734;2023-07-28T09:55:18;84.37;;;53.50;;
29030;SDS011;16122;50.236;11.734;2023-07-28T09:57:46;83.90;;;53.67;;
29030;SDS011;16122;50.236;11.734;2023-07-28T10:00:16;77.40;;;53.13;;
29030;SDS011;16122;50.236;11.734;2023-07-28T10:02:44;78.13;;;53.50;;
29030;SDS011;16122;50.236;11.734;2023-07-28T10:05:10;73.13;;;51.10;;
29030;SDS011;16122;50.236;11.734;2023-07-28T10:07:38;67.40;;;50.03;;
29030;SDS011;16122;50.236;11.734;2023-07-28T10:10:06;74.60;;;52.33;;
29030;SDS011;16122;50.236;11.734;2023-07-28T10:12:48;61.20;;;49.07;;
29030;SDS011;16122;50.236;11.734;2023-07-28T10:15:19;62.60;;;47.50;;
29030;SDS011;16122;50.236;11.734;2023-07-28T10:17:54;72.13;;;46.83;;
29030;SDS011;16122;50.236;11.734;2023-07-28T10:25:43;49.60;;;39.60;;
29030;SDS011;16122;50.236;11.734;2023-07-28T10:28:26;55.93;;;40.23;;
29030;SDS011;16122;50.236;11.734;2023-07-28T10:30:54;58.03;;;37.57;;
29030;SDS011;16122;50.236;11.734;2023-07-28T10:36:17;58.60;;;39.50;;
29030;SDS011;16122;50.236;11.734;2023-07-28T10:39:13;54.73;;;36.87;;
29030;SDS011;16122;50.236;11.734;2023-07-28T10:42:02;50.97;;;37.30;;
29030;SDS011;16122;50.236;11.734;2023-07-28T10:44:34;44.83;;;35.07;;
29030;SDS011;16122;50.236;11.734;2023-07-28T10:47:00;46.07;;;32.30;;
29030;SDS011;16122;50.236;11.734;2023-07-28T10:49:27;45.23;;;31.17;;
29030;SDS011;16122;50.236;11.734;2023-07-28T10:51:53;50.80;;;32.77;;
29030;SDS011;16122;50.236;11.734;2023-07-28T10:54:19;42.93;;;29.67;;
29030;SDS011;16122;50.236;11.734;2023-07-28T10:56:46;40.30;;;28.80;;
29030;SDS011;16122;50.236;11.734;2023-07-28T10:59:13;36.13;;;28.23;;
29030;SDS011;16122;50.236;11.734;2023-07-28T11:01:40;41.60;;;28.33;;
29030;SDS011;16122;50.236;11.734;2023-07-28T11:06:41;30.47;;;25.33;;
29030;SDS011;16122;50.236;11.734;2023-07-28T11:09:09;36.47;;;25.30;;
29030;SDS011;16122;50.236;11.734;2023-07-28T11:11:38;33.43;;;24.70;;
29030;SDS011;16122;50.236;11.734;2023-07-28T11:14:06;33.43;;;25.50;;
29030;SDS011;16122;50.236;11.734;2023-07-28T11:16:34;28.37;;;22.00;;
29030;SDS011;16122;50.236;11.734;2023-07-28T11:19:02;36.67;;;24.30;;
29030;SDS011;16122;50.236;11.734;2023-07-28T11:21:35;29.83;;;22.00;;
29030;SDS011;16122;50.236;11.734;2023-07-28T11:24:05;28.17;;;21.50;;
29030;SDS011;16122;50.236;11.734;2023-07-28T11:26:34;32.47;;;21.23;;
29030;SDS011;16122;50.236;11.734;2023-07-28T11:29:01;33.80;;;21.17;;
29030;SDS011;16122;50.236;11.734;2023-07-28T11:31:28;27.70;;;19.67;;
29030;SDS011;16122;50.236;11.734;2023-07-28T11:33:54;24.87;;;16.80;;
29030;SDS011;16122;50.236;11.734;2023-07-28T11:36:23;21.77;;;17.60;;
29030;SDS011;16122;50.236;11.734;2023-07-28T11:38:50;24.50;;;16.50;;
29030;SDS011;16122;50.236;11.734;2023-07-28T11:41:16;22.97;;;16.70;;
29030;SDS011;16122;50.236;11.734;2023-07-28T11:43:43;21.37;;;15.23;;
29030;SDS011;16122;50.236;11.734;2023-07-28T11:51:47;23.30;;;13.90;;
29030;SDS011;16122;50.236;11.734;2023-07-28T11:54:15;23.47;;;13.40;;
29030;SDS011;16122;50.236;11.734;2023-07-28T11:56:47;21.33;;;12.93;;
29030;SDS011;16122;50.236;11.734;2023-07-28T11:59:18;17.20;;;12.47;;
29030;SDS011;16122;50.236;11.734;2023-07-28T12:01:52;16.53;;;10.67;;
29030;SDS011;16122;50.236;11.734;2023-07-28T12:07:01;16.53;;;10.60;;
29030;SDS011;16122;50.236;11.734;2023-07-28T12:12:22;14.00;;;9.07;;
29030;SDS011;16122;50.236;11.734;2023-07-28T12:14:49;13.77;;;9.60;;
29030;SDS011;16122;50.236;11.734;2023-07-28T12:17:19;9.97;;;8.30;;
29030;SDS011;16122;50.236;11.734;2023-07-28T12:20:04;12.90;;;9.40;;
29030;SDS011;16122;50.236;11.734;2023-07-28T12:22:41;14.97;;;8.63;;
29030;SDS011;16122;50.236;11.734;2023-07-28T12:25:08;13.50;;;8.67;;
29030;SDS011;16122;50.236;11.734;2023-07-28T12:27:35;21.20;;;9.50;;
29030;SDS011;16122;50.236;11.734;2023-07-28T12:30:02;10.70;;;7.03;;
29030;SDS011;16122;50.236;11.734;2023-07-28T12:32:28;9.43;;;7.03;;
29030;SDS011;16122;50.236;11.734;2023-07-28T12:34:54;12.33;;;7.23;;
29030;SDS011;16122;50.236;11.734;2023-07-28T12:37:20;9.77;;;6.30;;
29030;SDS011;16122;50.236;11.734;2023-07-28T12:39:47;13.40;;;7.40;;
29030;SDS011;16122;50.236;11.734;2023-07-28T12:42:13;10.07;;;6.37;;
29030;SDS011;16122;50.236;11.734;2023-07-28T12:44:40;10.30;;;6.33;;
29030;SDS011;16122;50.236;11.734;2023-07-28T12:47:07;12.10;;;6.27;;
29030;SDS011;16122;50.236;11.734;2023-07-28T12:49:33;6.30;;;5.27;;
29030;SDS011;16122;50.236;11.734;2023-07-28T12:52:00;12.00;;;6.20;;
29030;SDS011;16122;50.236;11.734;2023-07-28T12:54:27;12.07;;;5.97;;
29030;SDS011;16122;50.236;11.734;2023-07-28T12:56:54;6.67;;;5.40;;
29030;SDS011;16122;50.236;11.734;2023-07-28T12:59:20;6.97;;;4.60;;
29030;SDS011;16122;50.236;11.734;2023-07-28T13:01:46;7.00;;;4.80;;
29030;SDS011;16122;50.236;11.734;2023-07-28T13:04:11;8.00;;;4.17;;
29030;SDS011;16122;50.236;11.734;2023-07-28T13:06:38;10.00;;;4.67;;
29030;SDS011;16122;50.236;11.734;2023-07-28T13:09:06;8.23;;;4.60;;
29030;SDS011;16122;50.236;11.734;2023-07-28T13:11:35;4.77;;;4.23;;
29030;SDS011;16122;50.236;11.734;2023-07-28T13:14:02;6.93;;;4.57;;
29030;SDS011;16122;50.236;11.734;2023-07-28T13:16:28;6.37;;;4.30;;
29030;SDS011;16122;50.236;11.734;2023-07-28T13:18:54;6.60;;;3.60;;
29030;SDS011;16122;50.236;11.734;2023-07-28T13:21:20;9.47;;;3.83;;
29030;SDS011;16122;50.236;11.734;2023-07-28T13:23:46;7.47;;;4.40;;
29030;SDS011;16122;50.236;11.734;2023-07-28T13:26:12;7.90;;;4.67;;
29030;SDS011;16122;50.236;11.734;2023-07-28T13:28:38;4.17;;;3.10;;
29030;SDS011;16122;50.236;11.734;2023-07-28T13:31:08;5.07;;;3.27;;
29030;SDS011;16122;50.236;11.734;2023-07-28T13:33:34;4.70;;;3.17;;
29030;SDS011;16122;50.236;11.734;2023-07-28T13:36:00;4.97;;;3.00;;
29030;SDS011;16122;50.236;11.734;2023-07-28T13:38:29;4.33;;;3.00;;
29030;SDS011;16122;50.236;11.734;2023-07-28T13:40:54;3.90;;;2.77;;
29030;SDS011;16122;50.236;11.734;2023-07-28T13:43:20;4.00;;;2.70;;
29030;SDS011;16122;50.236;11.734;2023-07-28T13:45:46;6.27;;;3.03;;
29030;SDS011;16122;50.236;11.734;2023-07-28T13:48:12;4.30;;;2.93;;
29030;SDS011;16122;50.236;11.734;2023-07-28T13:50:38;6.53;;;2.27;;
29030;SDS011;16122;50.236;11.734;2023-07-28T13:53:04;8.37;;;3.40;;
29030;SDS011;16122;50.236;11.734;2023-07-28T13:55:30;5.47;;;2.97;;
29030;SDS011;16122;50.236;11.734;2023-07-28T13:57:56;5.97;;;2.80;;
29030;SDS011;16122;50.236;11.734;2023-07-28T14:00:22;4.73;;;3.17;;
29030;SDS011;16122;50.236;11.734;2023-07-28T14:02:48;5.30;;;2.77;;
29030;SDS011;16122;50.236;11.734;2023-07-28T14:05:14;5.03;;;2.70;;
29030;SDS011;16122;50.236;11.734;2023-07-28T14:07:40;5.20;;;2.93;;
29030;SDS011;16122;50.236;11.734;2023-07-28T14:10:05;5.10;;;2.40;;
29030;SDS011;16122;50.236;11.734;2023-07-28T14:12:31;5.30;;;2.60;;
29030;SDS011;16122;50.236;11.734;2023-07-28T14:14:57;3.07;;;1.80;;
29030;SDS011;16122;50.236;11.734;2023-07-28T14:17:23;4.80;;;2.23;;
29030;SDS011;16122;50.236;11.734;2023-07-28T14:19:49;6.93;;;2.57;;
29030;SDS011;16122;50.236;11.734;2023-07-28T14:22:14;6.70;;;2.20;;
29030;SDS011;16122;50.236;11.734;2023-07-28T14:24:40;3.27;;;2.50;;
29030;SDS011;16122;50.236;11.734;2023-07-28T14:27:06;3.97;;;2.20;;
29030;SDS011;16122;50.236;11.734;2023-07-28T14:29:32;4.33;;;2.00;;
29030;SDS011;16122;50.236;11.734;2023-07-28T14:31:58;3.57;;;1.90;;
29030;SDS011;16122;50.236;11.734;2023-07-28T14:34:24;2.07;;;1.87;;
29030;SDS011;16122;50.236;11.734;2023-07-28T14:36:49;2.90;;;2.00;;
29030;SDS011;16122;50.236;11.734;2023-07-28T14:39:15;2.87;;;1.90;;
29030;SDS011;16122;50.236;11.734;2023-07-28T14:41:41;5.23;;;2.60;;
29030;SDS011;16122;50.236;11.734;2023-07-28T14:44:07;3.50;;;2.00;;
29030;SDS011;16122;50.236;11.734;2023-07-28T14:46:33;2.70;;;1.80;;
29030;SDS011;16122;50.236;11.734;2023-07-28T14:48:59;2.03;;;1.60;;
29030;SDS011;16122;50.236;11.734;2023-07-28T14:51:24;2.70;;;1.83;;
29030;SDS011;16122;50.236;11.734;2023-07-28T14:53:51;3.03;;;1.87;;